createdAt,value
2022-08-09T00:00:46.290Z,61.68
2022-08-09T00:01:54.942Z,61.05
2022-08-09T00:02:49.386Z,61.05
2022-08-09T00:04:00.729Z,61.05
2022-08-09T00:05:03.153Z,61.25
2022-08-09T00:06:19.202Z,61.58
2022-08-09T00:06:46.443Z,61.98
2022-08-09T00:07:45.469Z,62.18
2022-08-09T00:08:45.373Z,62.51
2022-08-09T00:09:45.363Z,63.01
2022-08-09T00:10:45.355Z,63.01
2022-08-09T00:12:03.919Z,63.35
2022-08-09T00:12:46.366Z,63.32
2022-08-09T00:13:45.318Z,63.35
2022-08-09T00:14:45.436Z,63.75
2022-08-09T00:15:59.847Z,63.88
2022-08-09T00:16:47.292Z,64.08
2022-08-09T00:18:06.091Z,63.98
2022-08-09T00:18:46.299Z,64.08
2022-08-09T00:19:48.055Z,64.39
2022-08-09T00:20:49.785Z,63.75
2022-08-09T00:21:56.584Z,63.25
2022-08-09T00:22:47.147Z,62.81
2022-08-09T00:23:55.408Z,62.92
2022-08-09T00:24:46.241Z,62.42
2022-08-09T00:25:45.189Z,62.31
2022-08-09T00:26:46.228Z,61.98
2022-08-09T00:27:48.044Z,61.88
2022-08-09T00:28:52.644Z,61.98
2022-08-09T00:30:23.587Z,62.31
2022-08-09T00:30:46.168Z,62.11
2022-08-09T00:31:57.766Z,62.42
2022-08-09T00:32:46.633Z,62.21
2022-08-09T00:33:51.022Z,62.21
2022-08-09T00:34:46.357Z,62.51
2022-08-09T00:35:46.119Z,62.71
2022-08-09T00:36:45.069Z,63.25
2022-08-09T00:37:45.059Z,63.65
2022-08-09T00:38:45.046Z,63.88
2022-08-09T00:40:09.676Z,64.58
2022-08-09T00:40:52.386Z,64.72
2022-08-09T00:44:10.099Z,65.12
2022-08-09T00:44:14.249Z,65.12
2022-08-09T00:44:15.997Z,65.02
2022-08-09T00:44:47.037Z,65.22
2022-08-09T00:45:50.608Z,65.22
2022-08-09T00:46:55.869Z,64.92
2022-08-09T00:47:45.985Z,65.02
2022-08-09T00:48:47.522Z,65.12
2022-08-09T00:49:52.578Z,65.02
2022-08-09T00:50:45.951Z,65.22
2022-08-09T00:51:56.057Z,64.92
2022-08-09T00:52:51.946Z,65.12
2022-08-09T00:53:44.883Z,64.92
2022-08-09T00:54:45.067Z,65.22
2022-08-09T00:56:05.099Z,65.42
2022-08-09T00:56:45.891Z,65.72
2022-08-09T00:57:44.845Z,66.16
2022-08-09T00:58:48.946Z,66.36
2022-08-09T00:59:47.085Z,66.59
2022-08-09T01:00:45.897Z,66.79
2022-08-09T01:01:45.398Z,67.10
2022-08-09T01:02:44.790Z,67.19
2022-08-09T01:03:46.244Z,67.84
2022-08-09T01:04:44.764Z,67.93
2022-08-09T01:05:53.150Z,68.47
2022-08-09T01:06:53.729Z,68.98
2022-08-09T01:08:00.087Z,69.51
2022-08-09T01:08:49.762Z,69.92
2022-08-09T01:09:44.714Z,70.05
2022-08-09T01:10:45.185Z,70.75
2022-08-09T01:11:53.275Z,70.75
2022-08-09T01:12:44.685Z,70.86
2022-08-09T01:14:19.407Z,70.35
2022-08-09T01:15:19.402Z,70.45
2022-08-09T01:16:19.391Z,70.35
2022-08-09T01:17:19.372Z,70.55
2022-08-09T01:18:29.744Z,70.79
2022-08-09T01:19:42.374Z,71.30
2022-08-09T01:20:20.378Z,71.60
2022-08-09T01:21:19.331Z,72.14
2022-08-09T01:22:19.317Z,72.44
2022-08-09T01:24:02.106Z,72.54
2022-08-09T01:24:20.535Z,72.54
2022-08-09T01:25:19.400Z,73.15
2022-08-09T01:26:19.277Z,73.35
2022-08-09T01:27:19.265Z,73.18
2022-08-09T01:28:19.256Z,73.18
2022-08-09T01:29:19.244Z,73.89
2022-08-09T01:30:28.749Z,74.09
2022-08-09T01:31:23.402Z,73.89
2022-08-09T01:32:32.647Z,74.23
2022-08-09T01:33:20.439Z,74.43
2022-08-09T01:34:19.187Z,74.63
2022-08-09T01:35:38.029Z,74.77
2022-08-09T01:36:20.207Z,75.48
2022-08-09T01:37:21.721Z,75.37
2022-08-09T01:38:20.188Z,75.57
2022-08-09T01:39:19.211Z,75.57
2022-08-09T01:40:23.236Z,75.78
2022-08-09T01:41:25.838Z,75.81
2022-08-09T01:42:22.194Z,76.12
2022-08-09T01:43:25.105Z,76.83
2022-08-09T01:44:19.083Z,76.83
2022-08-09T01:45:19.070Z,77.13
2022-08-09T01:46:24.990Z,77.27
2022-08-09T01:47:20.087Z,77.17
2022-08-09T01:48:19.040Z,77.88
2022-08-09T01:49:19.034Z,78.38
2022-08-09T01:50:19.023Z,78.58
2022-08-09T01:51:22.787Z,78.52
2022-08-09T01:52:25.071Z,78.72
2022-08-09T01:53:21.586Z,78.93
2022-08-09T01:54:18.976Z,79.33
2022-08-09T01:55:18.969Z,79.33
2022-08-09T01:56:18.954Z,79.54
2022-08-09T01:57:18.946Z,79.13
2022-08-09T01:58:24.142Z,77.78
2022-08-09T01:59:18.920Z,77.53
2022-08-09T02:00:35.090Z,77.44
2022-08-09T02:01:19.990Z,76.08
2022-08-09T02:02:19.920Z,75.54
2022-08-09T02:03:18.875Z,75.75
2022-08-09T02:04:18.867Z,75.34
2022-08-09T02:05:18.857Z,75.24
2022-08-09T02:06:18.852Z,75.14
2022-08-09T02:08:39.147Z,74.40
2022-08-09T02:08:41.212Z,75.44
2022-08-09T02:09:19.855Z,73.79
2022-08-09T02:10:18.804Z,73.45
2022-08-09T02:11:19.855Z,72.61
2022-08-09T02:12:27.089Z,72.50
2022-08-09T02:13:19.809Z,72.00
2022-08-09T02:14:25.512Z,71.90
2022-08-09T02:15:19.794Z,71.39
2022-08-09T02:16:33.637Z,71.60
2022-08-09T02:17:59.338Z,71.36
2022-08-09T02:18:18.722Z,70.95
2022-08-09T02:19:18.705Z,70.72
2022-08-09T02:20:26.753Z,70.42
2022-08-09T02:21:22.057Z,70.22
2022-08-09T02:22:19.102Z,70.22
2022-08-09T02:23:19.904Z,70.42
2022-08-09T02:24:26.484Z,69.61
2022-08-09T02:25:19.677Z,69.18
2022-08-09T02:26:27.024Z,69.18
2022-08-09T02:27:18.766Z,68.87
2022-08-09T02:28:18.613Z,68.67
2022-08-09T02:29:18.603Z,68.77
2022-08-09T02:30:18.589Z,69.07
2022-08-09T02:31:18.607Z,69.18
2022-08-09T02:32:18.573Z,68.67
2022-08-09T02:33:18.575Z,68.37
2022-08-09T02:34:40.119Z,68.04
2022-08-09T02:35:23.092Z,67.93
2022-08-09T02:36:19.564Z,67.93
2022-08-09T02:37:18.519Z,68.34
2022-08-09T02:38:27.886Z,68.37
2022-08-09T02:39:33.425Z,68.47
2022-08-09T02:40:26.820Z,68.57
2022-08-09T02:41:19.633Z,68.47
2022-08-09T02:42:18.461Z,68.47
2022-08-09T02:43:18.450Z,68.54
2022-08-09T02:44:29.046Z,68.13
2022-08-09T02:45:20.430Z,68.13
2022-08-09T02:46:19.456Z,68.04
2022-08-09T02:47:18.411Z,68.17
2022-08-09T02:48:29.767Z,68.17
2022-08-09T02:49:19.422Z,68.67
2022-08-09T02:50:19.411Z,68.87
2022-08-09T02:51:18.368Z,69.28
2022-08-09T02:52:18.357Z,69.41
2022-08-09T02:53:26.226Z,69.51
2022-08-09T02:54:20.332Z,69.92
2022-08-09T02:55:21.166Z,70.55
2022-08-09T02:56:18.310Z,70.55
2022-08-09T02:57:23.582Z,70.66
2022-08-09T02:58:37.009Z,70.79
2022-08-09T02:59:26.431Z,70.79
2022-08-09T03:00:24.985Z,70.99
2022-08-09T03:01:21.655Z,71.30
2022-08-09T03:02:19.393Z,71.60
2022-08-09T03:03:21.448Z,71.80
2022-08-09T03:04:19.604Z,72.03
2022-08-09T03:05:18.214Z,71.93
2022-08-09T03:06:18.202Z,72.03
2022-08-09T03:07:18.190Z,72.24
2022-08-09T03:08:24.187Z,72.24
2022-08-09T03:09:18.169Z,72.78
2022-08-09T03:10:18.164Z,73.28
2022-08-09T03:12:04.932Z,73.28
2022-08-09T03:12:19.171Z,73.18
2022-08-09T03:13:18.126Z,73.28
2022-08-09T03:14:28.163Z,73.38
2022-08-09T03:15:18.312Z,73.79
2022-08-09T03:16:18.099Z,74.43
2022-08-09T03:17:20.388Z,74.84
2022-08-09T03:18:19.174Z,74.73
2022-08-09T03:19:59.482Z,75.28
2022-08-09T03:20:19.088Z,75.68
2022-08-09T03:21:18.045Z,75.61
2022-08-09T03:22:25.057Z,76.22
2022-08-09T03:23:24.312Z,77.23
2022-08-09T03:24:25.204Z,77.17
2022-08-09T03:25:26.955Z,77.47
2022-08-09T03:26:19.022Z,77.67
2022-08-09T03:27:21.567Z,77.91
2022-08-09T03:28:17.966Z,78.42
2022-08-09T03:29:22.921Z,78.83
2022-08-09T03:30:29.759Z,79.16
2022-08-09T03:31:22.670Z,79.27
2022-08-09T03:32:17.926Z,79.81
2022-08-09T03:33:19.439Z,80.62
2022-08-09T03:34:17.906Z,80.93
2022-08-09T03:35:24.828Z,81.07
2022-08-09T03:36:18.921Z,82.18
2022-08-09T03:37:56.465Z,82.42
2022-08-09T03:38:30.269Z,82.33
2022-08-09T03:39:28.363Z,83.03
2022-08-09T03:40:18.835Z,83.48
2022-08-09T03:41:18.488Z,84.19
2022-08-09T03:42:19.310Z,84.39
2022-08-09T03:43:18.804Z,85.04
2022-08-09T03:44:17.743Z,85.76
2022-08-09T03:45:17.785Z,86.06
2022-08-09T03:46:19.974Z,86.98
2022-08-09T03:47:17.727Z,86.26
2022-08-09T03:48:18.758Z,86.46
2022-08-09T03:49:18.940Z,86.37
2022-08-09T03:50:27.695Z,86.46
2022-08-09T03:51:55.622Z,86.46
2022-08-09T03:52:18.699Z,87.01
2022-08-09T03:53:17.645Z,87.01
2022-08-09T03:54:17.642Z,88.03
2022-08-09T03:55:17.825Z,88.13
2022-08-09T03:56:17.618Z,88.03
2022-08-09T03:57:20.638Z,88.54
2022-08-09T03:58:21.064Z,88.74
2022-08-09T03:59:21.001Z,88.54
2022-08-09T04:00:18.620Z,87.73
2022-08-09T04:01:17.598Z,87.83
2022-08-09T04:02:19.693Z,87.62
2022-08-09T04:03:25.009Z,87.62
2022-08-09T04:04:18.769Z,87.73
2022-08-09T04:05:27.945Z,88.03
2022-08-09T04:06:18.540Z,88.38
2022-08-09T04:07:17.493Z,88.58
2022-08-09T04:08:17.496Z,88.78
2022-08-09T04:09:44.556Z,89.19
2022-08-09T04:10:18.251Z,89.50
2022-08-09T04:11:17.451Z,88.78
2022-08-09T04:12:30.669Z,89.50
2022-08-09T04:13:18.661Z,89.91
2022-08-09T04:14:52.819Z,90.15
2022-08-09T04:15:52.528Z,90.35
2022-08-09T04:16:21.264Z,90.76
2022-08-09T04:17:17.385Z,90.25
2022-08-09T04:18:19.264Z,89.30
2022-08-09T04:19:30.321Z,88.84
2022-08-09T04:20:17.354Z,88.64
2022-08-09T04:21:17.359Z,87.48
2022-08-09T04:22:17.336Z,86.22
2022-08-09T04:23:17.917Z,85.71
2022-08-09T04:24:18.381Z,85.77
2022-08-09T04:25:17.300Z,85.16
2022-08-09T04:26:17.285Z,85.07
2022-08-09T04:27:23.289Z,84.86
2022-08-09T04:28:17.270Z,85.07
2022-08-09T04:29:19.267Z,85.27
2022-08-09T04:30:17.245Z,85.07
2022-08-09T04:31:17.235Z,85.07
2022-08-09T04:32:31.460Z,84.86
2022-08-09T04:33:19.217Z,85.00
2022-08-09T04:34:30.571Z,84.86
2022-08-09T04:35:18.229Z,84.46
2022-08-09T04:36:17.180Z,83.95
2022-08-09T04:37:17.173Z,83.30
2022-08-09T04:38:17.160Z,82.25
2022-08-09T04:39:17.440Z,81.29
2022-08-09T04:40:19.375Z,80.99
2022-08-09T04:41:18.161Z,80.89
2022-08-09T04:42:17.122Z,80.89
2022-08-09T04:43:17.105Z,80.99
2022-08-09T04:44:17.095Z,80.79
2022-08-09T04:45:23.093Z,80.69
2022-08-09T04:46:36.554Z,80.28
2022-08-09T04:47:18.107Z,79.74
2022-08-09T04:48:17.052Z,79.84
2022-08-09T04:49:17.040Z,79.63
2022-08-09T04:50:17.034Z,79.74
2022-08-09T04:51:17.019Z,79.63
2022-08-09T04:52:26.211Z,79.94
2022-08-09T04:53:17.006Z,79.74
2022-08-09T04:54:52.231Z,79.94
2022-08-09T04:55:57.897Z,79.90
2022-08-09T04:56:53.650Z,79.50
2022-08-09T04:57:54.139Z,79.40
2022-08-09T04:58:51.834Z,79.19
2022-08-09T04:59:51.619Z,78.65
2022-08-09T05:00:51.605Z,78.45
2022-08-09T05:01:51.599Z,77.50
2022-08-09T05:02:52.568Z,76.89
2022-08-09T05:03:56.792Z,75.84
2022-08-09T05:04:55.046Z,75.71
2022-08-09T05:06:04.370Z,75.61
2022-08-09T05:06:52.585Z,75.00
2022-08-09T05:07:51.534Z,76.01
2022-08-09T05:08:51.525Z,74.90
2022-08-09T05:09:51.522Z,75.71
2022-08-09T05:10:51.502Z,75.61
2022-08-09T05:11:51.506Z,74.90
2022-08-09T05:12:51.483Z,74.96
2022-08-09T05:13:51.523Z,74.26
2022-08-09T05:14:51.460Z,74.16
2022-08-09T05:15:56.884Z,75.07
2022-08-09T05:16:59.392Z,74.12
2022-08-09T05:18:57.408Z,73.92
2022-08-09T05:18:58.168Z,73.82
2022-08-09T05:19:56.996Z,73.82
2022-08-09T05:20:51.403Z,72.88
2022-08-09T05:21:55.293Z,72.88
2022-08-09T05:23:55.221Z,71.73
2022-08-09T05:23:57.874Z,71.53
2022-08-09T05:24:52.403Z,72.20
2022-08-09T05:25:51.389Z,71.19
2022-08-09T05:26:51.334Z,70.79
2022-08-09T05:27:51.329Z,70.99
2022-08-09T05:28:52.132Z,70.99
2022-08-09T05:29:51.310Z,71.09
2022-08-09T05:30:51.582Z,71.19
2022-08-09T05:31:56.745Z,70.35
2022-08-09T05:32:53.381Z,70.55
2022-08-09T05:33:51.264Z,70.35
2022-08-09T05:34:51.257Z,69.75
2022-08-09T05:35:51.263Z,69.51
2022-08-09T05:36:57.243Z,70.22
2022-08-09T05:37:51.234Z,69.68
2022-08-09T05:38:51.214Z,69.89
2022-08-09T05:39:51.265Z,69.28
2022-08-09T05:40:51.188Z,68.75
2022-08-09T05:41:51.179Z,67.54
2022-08-09T05:42:51.169Z,66.90
2022-08-09T05:43:51.160Z,66.90
2022-08-09T05:44:51.735Z,66.16
2022-08-09T05:45:56.781Z,65.93
2022-08-09T05:46:52.371Z,64.73
2022-08-09T05:47:52.345Z,61.93
2022-08-09T05:48:58.841Z,59.24
2022-08-09T05:50:31.069Z,56.36
2022-08-09T05:51:16.675Z,54.66
2022-08-09T05:51:52.117Z,51.89
2022-08-09T05:52:53.548Z,51.64
2022-08-09T05:53:57.046Z,50.50
2022-08-09T05:54:52.078Z,48.56
2022-08-09T05:55:51.028Z,47.27
2022-08-09T05:56:54.814Z,48.12
2022-08-09T05:57:56.698Z,46.49
2022-08-09T05:58:53.779Z,46.44
2022-08-09T05:59:52.031Z,44.44
2022-08-09T06:00:50.981Z,44.14
2022-08-09T06:01:50.981Z,44.58
2022-08-09T06:02:54.317Z,44.98
2022-08-09T06:03:58.081Z,46.65
2022-08-09T06:04:57.983Z,48.74
2022-08-09T06:06:04.724Z,47.72
2022-08-09T06:06:51.954Z,45.79
2022-08-09T06:08:05.189Z,44.80
2022-08-09T06:08:52.800Z,46.41
2022-08-09T06:10:01.338Z,46.16
2022-08-09T06:10:50.879Z,47.25
2022-08-09T06:11:57.809Z,46.49
2022-08-09T06:12:59.329Z,45.23
2022-08-09T06:13:52.091Z,44.73
2022-08-09T06:14:50.837Z,43.43
2022-08-09T06:15:57.035Z,44.40
2022-08-09T06:16:52.429Z,42.84
2022-08-09T06:17:50.802Z,42.40
2022-08-09T06:18:50.793Z,42.18
2022-08-09T06:19:50.789Z,42.04
2022-08-09T06:20:54.906Z,40.54
2022-08-09T06:21:58.777Z,40.20
2022-08-09T06:22:51.791Z,39.73
2022-08-09T06:23:55.816Z,40.05
2022-08-09T06:24:50.730Z,40.70
2022-08-09T06:25:50.727Z,39.22
2022-08-09T06:26:50.708Z,39.53
2022-08-09T06:27:51.724Z,39.42
2022-08-09T06:28:59.565Z,39.79
2022-08-09T06:30:04.650Z,39.52
2022-08-09T06:30:51.710Z,40.20
2022-08-09T06:32:08.407Z,38.75
2022-08-09T06:32:59.789Z,39.34
2022-08-09T06:33:53.252Z,40.09
2022-08-09T06:34:53.111Z,39.48
2022-08-09T06:35:56.796Z,39.28
2022-08-09T06:36:57.359Z,38.28
2022-08-09T06:38:05.367Z,38.77
2022-08-09T06:38:50.582Z,38.53
2022-08-09T06:40:00.659Z,37.34
2022-08-09T06:40:55.041Z,37.14
2022-08-09T06:42:08.729Z,37.51
2022-08-09T06:42:51.581Z,35.83
2022-08-09T06:43:50.528Z,35.55
2022-08-09T06:44:54.062Z,36.34
2022-08-09T06:46:04.970Z,36.51
2022-08-09T06:46:56.715Z,36.51
2022-08-09T06:48:00.538Z,36.70
2022-08-09T06:48:51.517Z,36.17
2022-08-09T06:50:13.525Z,35.36
2022-08-09T06:50:51.511Z,35.44
2022-08-09T06:51:50.452Z,34.76
2022-08-09T06:52:50.441Z,34.14
2022-08-09T06:53:50.436Z,34.24
2022-08-09T06:54:50.415Z,34.03
2022-08-09T06:55:50.425Z,32.85
2022-08-09T06:56:56.406Z,33.28
2022-08-09T06:58:03.469Z,34.49
2022-08-09T07:00:53.065Z,35.79
2022-08-09T07:00:57.038Z,34.61
2022-08-09T07:00:58.469Z,34.32
2022-08-09T07:01:54.824Z,35.71
2022-08-09T07:02:51.430Z,35.40
2022-08-09T07:03:52.562Z,34.30
2022-08-09T07:04:50.324Z,34.73
2022-08-09T07:05:58.199Z,35.60
2022-08-09T07:06:53.084Z,34.71
2022-08-09T07:08:00.986Z,35.93
2022-08-09T07:08:51.310Z,35.12
2022-08-09T07:09:55.597Z,34.70
2022-08-09T07:10:51.299Z,35.99
2022-08-09T07:11:52.297Z,35.19
2022-08-09T07:12:57.614Z,35.36
2022-08-09T07:14:04.846Z,33.38
2022-08-09T07:14:53.409Z,33.85
2022-08-09T07:15:53.888Z,32.79
2022-08-09T07:16:57.458Z,35.25
2022-08-09T07:17:56.015Z,33.88
2022-08-09T07:18:56.183Z,34.68
2022-08-09T07:19:55.177Z,34.57
2022-08-09T07:20:50.165Z,33.28
2022-08-09T07:21:57.223Z,33.13
2022-08-09T07:22:53.188Z,32.95
2022-08-09T07:23:56.680Z,32.45
2022-08-09T07:24:57.164Z,33.65
2022-08-09T07:26:02.563Z,34.57
2022-08-09T07:26:50.915Z,33.06
2022-08-09T07:27:53.180Z,32.94
2022-08-09T07:29:09.112Z,31.84
2022-08-09T07:29:58.309Z,32.28
2022-08-09T07:30:56.076Z,33.54
2022-08-09T07:31:50.043Z,32.43
2022-08-09T07:32:51.492Z,32.85
2022-08-09T07:33:52.467Z,34.35
2022-08-09T07:34:56.017Z,33.05
2022-08-09T07:35:53.557Z,32.42
2022-08-09T07:36:49.995Z,31.76
2022-08-09T07:37:49.982Z,30.19
2022-08-09T07:38:56.789Z,31.36
2022-08-09T07:39:51.041Z,31.49
2022-08-09T07:41:00.962Z,30.22
2022-08-09T07:41:50.977Z,31.39
2022-08-09T07:42:50.129Z,29.90
2022-08-09T07:43:55.946Z,30.48
2022-08-09T07:44:55.384Z,30.38
2022-08-09T07:45:50.148Z,30.40
2022-08-09T07:46:50.094Z,31.96
2022-08-09T07:48:01.623Z,30.38
2022-08-09T07:48:52.830Z,29.61
2022-08-09T07:50:04.847Z,30.45
2022-08-09T07:50:53.152Z,29.55
2022-08-09T07:52:05.906Z,28.70
2022-08-09T07:52:50.863Z,28.99
2022-08-09T07:54:05.190Z,29.99
2022-08-09T07:55:28.625Z,29.38
2022-08-09T07:56:27.354Z,29.63
2022-08-09T07:57:33.978Z,31.31
2022-08-09T07:58:27.495Z,30.51
2022-08-09T07:59:45.771Z,29.88
2022-08-09T08:00:35.473Z,28.87
2022-08-09T08:01:33.938Z,29.01
2022-08-09T08:02:27.587Z,30.07
2022-08-09T08:03:26.779Z,29.41
2022-08-09T08:04:32.940Z,30.47
2022-08-09T08:05:26.394Z,29.57
2022-08-09T08:06:31.820Z,28.17
2022-08-09T08:08:43.622Z,29.10
2022-08-09T08:09:02.524Z,29.82
2022-08-09T08:09:35.479Z,30.08
2022-08-09T08:10:28.345Z,29.32
2022-08-09T08:12:09.868Z,30.34
2022-08-09T08:12:29.193Z,31.86
2022-08-09T08:13:26.310Z,31.17
2022-08-09T08:14:27.335Z,32.75
2022-08-09T08:15:26.431Z,31.31
2022-08-09T08:16:29.809Z,30.70
2022-08-09T08:17:52.023Z,30.16
2022-08-09T08:18:27.302Z,30.15
2022-08-09T08:19:30.674Z,28.45
2022-08-09T08:20:33.270Z,27.56
2022-08-09T08:21:26.572Z,27.55
2022-08-09T08:22:28.609Z,27.99
2022-08-09T08:23:27.372Z,27.13
2022-08-09T08:24:27.094Z,26.42
2022-08-09T08:25:26.192Z,26.81
2022-08-09T08:26:42.023Z,26.26
2022-08-09T08:27:27.217Z,28.54
2022-08-09T08:28:34.986Z,27.34
2022-08-09T08:29:27.825Z,26.84
2022-08-09T08:30:26.144Z,26.72
2022-08-09T08:31:39.392Z,27.09
2022-08-09T08:32:29.370Z,26.90
2022-08-09T08:33:49.734Z,26.49
2022-08-09T08:34:27.342Z,25.41
2022-08-09T08:35:36.983Z,25.80
2022-08-09T08:36:28.677Z,25.79
2022-08-09T08:37:26.074Z,24.42
2022-08-09T08:38:32.085Z,26.72
2022-08-09T08:39:26.123Z,27.29
2022-08-09T08:40:26.048Z,25.84
2022-08-09T08:41:30.806Z,25.64
2022-08-09T08:42:31.984Z,25.81
2022-08-09T08:43:26.580Z,25.22
2022-08-09T08:44:28.713Z,25.88
2022-08-09T08:45:37.459Z,24.43
2022-08-09T08:46:33.035Z,25.11
2022-08-09T08:47:27.603Z,25.30
2022-08-09T08:48:29.207Z,26.03
2022-08-09T08:49:33.398Z,27.04
2022-08-09T08:50:34.159Z,26.43
2022-08-09T08:51:25.949Z,25.45
2022-08-09T08:52:57.839Z,25.75
2022-08-09T08:53:32.099Z,27.23
2022-08-09T08:54:30.150Z,26.35
2022-08-09T08:55:25.906Z,27.63
2022-08-09T08:56:28.498Z,27.56
2022-08-09T08:57:26.940Z,28.84
2022-08-09T08:58:27.259Z,27.73
2022-08-09T08:59:46.664Z,27.62
2022-08-09T09:00:27.526Z,27.14
2022-08-09T09:01:44.799Z,27.58
2022-08-09T09:02:31.901Z,26.48
2022-08-09T09:03:37.280Z,26.84
2022-08-09T09:04:27.602Z,28.44
2022-08-09T09:05:57.790Z,26.76
2022-08-09T09:06:27.042Z,26.93
2022-08-09T09:07:25.794Z,25.91
2022-08-09T09:08:31.010Z,25.22
2022-08-09T09:09:50.235Z,25.98
2022-08-09T09:10:26.894Z,25.18
2022-08-09T09:11:25.963Z,24.40
2022-08-09T09:12:25.957Z,24.10
2022-08-09T09:13:41.952Z,23.71
2022-08-09T09:14:26.764Z,24.79
2022-08-09T09:16:08.643Z,24.42
2022-08-09T09:17:10.580Z,24.71
2022-08-09T09:18:08.394Z,25.20
2022-08-09T09:19:37.113Z,24.31
2022-08-09T09:20:09.613Z,25.69
2022-08-09T09:21:08.365Z,24.71
2022-08-09T09:22:11.778Z,25.23
2022-08-09T09:23:08.553Z,26.09
2022-08-09T09:24:10.343Z,25.84
2022-08-09T09:26:03.525Z,26.19
2022-08-09T09:26:12.339Z,25.98
2022-08-09T09:27:22.180Z,25.28
2022-08-09T09:28:10.665Z,24.77
2022-08-09T09:29:17.215Z,23.58
2022-08-09T09:30:40.097Z,22.90
2022-08-09T09:31:09.540Z,23.70
2022-08-09T09:32:15.539Z,24.64
2022-08-09T09:33:16.750Z,25.03
2022-08-09T09:34:18.479Z,25.81
2022-08-09T09:35:15.807Z,25.93
2022-08-09T09:36:20.246Z,26.76
2022-08-09T09:37:08.437Z,26.84
2022-08-09T09:38:08.221Z,26.81
2022-08-09T09:39:09.936Z,26.02
2022-08-09T09:40:08.496Z,26.35
2022-08-09T09:41:10.010Z,26.73
2022-08-09T09:42:14.201Z,26.70
2022-08-09T09:43:08.183Z,25.28
2022-08-09T09:44:12.681Z,24.23
2022-08-09T09:45:08.600Z,25.10
2022-08-09T09:47:08.422Z,25.09
2022-08-09T09:48:08.470Z,24.68
2022-08-09T09:49:14.339Z,24.85
2022-08-09T09:50:16.808Z,23.87
2022-08-09T09:51:11.551Z,23.90
2022-08-09T09:52:53.862Z,25.21
2022-08-09T09:54:00.889Z,24.21
2022-08-09T09:54:48.680Z,24.01
2022-08-09T09:55:43.853Z,24.09
2022-08-09T09:58:01.002Z,24.35
2022-08-09T09:58:03.254Z,23.65
2022-08-09T09:58:51.082Z,22.76
2022-08-09T09:59:44.022Z,23.32
2022-08-09T10:00:52.494Z,21.96
2022-08-09T10:01:45.051Z,21.79
2022-08-09T10:02:43.813Z,23.17
2022-08-09T10:03:44.690Z,23.23
2022-08-09T10:04:44.826Z,22.25
2022-08-09T10:06:00.849Z,22.51
2022-08-09T10:06:47.064Z,24.24
2022-08-09T10:08:10.880Z,22.87
2022-08-09T10:08:57.322Z,22.69
2022-08-09T10:09:48.462Z,23.26
2022-08-09T10:10:49.744Z,22.83
2022-08-09T10:12:00.527Z,21.56
2022-08-09T10:12:49.842Z,22.60
2022-08-09T10:13:45.710Z,22.90
2022-08-09T10:14:48.228Z,23.55
2022-08-09T10:16:58.119Z,22.74
2022-08-09T10:17:40.147Z,22.14
2022-08-09T10:18:19.411Z,22.74
2022-08-09T10:19:18.566Z,22.35
2022-08-09T10:20:27.409Z,21.86
2022-08-09T10:21:19.377Z,21.78
2022-08-09T10:22:29.334Z,21.78
2022-08-09T10:23:28.206Z,22.37
2022-08-09T10:24:25.606Z,22.91
2022-08-09T10:25:21.000Z,24.46
2022-08-09T10:26:19.422Z,23.77
2022-08-09T10:27:24.812Z,25.15
2022-08-09T10:28:19.330Z,23.10
2022-08-09T10:29:37.190Z,23.46
2022-08-09T10:32:53.248Z,21.56
2022-08-09T10:34:10.409Z,22.83
2022-08-09T10:34:53.974Z,22.05
2022-08-09T10:35:53.127Z,21.86
2022-08-09T10:36:58.918Z,22.52
2022-08-09T10:37:53.107Z,22.91
2022-08-09T10:38:56.415Z,22.90
2022-08-09T10:39:53.971Z,21.79
2022-08-09T10:40:53.026Z,21.74
2022-08-09T10:41:52.882Z,22.97
2022-08-09T10:42:53.379Z,23.07
2022-08-09T10:43:59.394Z,22.94
2022-08-09T10:44:54.102Z,23.12
2022-08-09T10:46:00.254Z,21.94
2022-08-09T10:46:57.715Z,22.85
2022-08-09T10:48:16.720Z,22.78
2022-08-09T10:49:51.346Z,22.89
2022-08-09T10:50:48.848Z,23.48
2022-08-09T10:51:48.629Z,24.74
2022-08-09T10:52:48.817Z,22.94
2022-08-09T10:53:54.755Z,22.32
2022-08-09T10:54:50.605Z,21.50
2022-08-09T10:55:58.174Z,21.40
2022-08-09T10:56:49.624Z,20.61
2022-08-09T10:57:55.885Z,21.69
2022-08-09T10:58:49.496Z,20.12
2022-08-09T10:59:57.718Z,20.77
2022-08-09T11:03:10.857Z,19.97
2022-08-09T11:03:15.934Z,19.98
2022-08-09T11:03:50.401Z,20.20
2022-08-09T11:04:30.260Z,20.56
2022-08-09T11:05:25.078Z,21.32
2022-08-09T11:06:30.912Z,20.83
2022-08-09T11:07:58.135Z,20.77
2022-08-09T11:08:54.900Z,20.68
2022-08-09T11:09:56.453Z,21.69
2022-08-09T11:10:56.369Z,21.76
2022-08-09T11:11:54.168Z,22.25
2022-08-09T11:12:53.960Z,22.00
2022-08-09T11:13:55.023Z,22.90
2022-08-09T11:14:53.951Z,23.20
2022-08-09T11:16:06.385Z,23.53
2022-08-09T11:16:55.938Z,22.43
2022-08-09T11:18:03.063Z,20.59
2022-08-09T11:18:56.436Z,19.94
2022-08-09T11:20:11.134Z,19.19
2022-08-09T11:20:55.156Z,20.45
2022-08-09T11:21:55.131Z,19.61
2022-08-09T11:24:23.721Z,19.65
2022-08-09T11:25:17.501Z,20.01
2022-08-09T11:26:54.633Z,19.64
2022-08-09T11:28:03.919Z,19.24
2022-08-09T11:28:56.136Z,19.08
2022-08-09T11:30:04.353Z,19.58
2022-08-09T11:30:54.141Z,19.58
2022-08-09T11:31:58.341Z,19.97
2022-08-09T11:32:52.125Z,20.01
2022-08-09T11:33:52.483Z,20.67
2022-08-09T11:35:50.241Z,19.61
2022-08-09T11:36:40.371Z,20.00
2022-08-09T11:37:40.851Z,19.81
2022-08-09T11:38:45.115Z,20.46
2022-08-09T11:39:39.169Z,19.29
2022-08-09T11:40:39.090Z,19.58
2022-08-09T11:41:40.520Z,20.27
2022-08-09T11:42:39.083Z,19.98
2022-08-09T11:43:39.479Z,19.61
2022-08-09T11:44:39.275Z,20.86
2022-08-09T11:45:42.702Z,20.49
2022-08-09T11:46:39.063Z,20.30
2022-08-09T11:47:45.082Z,20.59
2022-08-09T11:48:39.255Z,20.11
2022-08-09T11:53:01.070Z,21.96
2022-08-09T11:53:06.265Z,20.42
2022-08-09T11:54:11.295Z,21.71
2022-08-09T11:55:08.290Z,20.70
2022-08-09T11:56:08.287Z,21.28
2022-08-09T11:57:08.279Z,20.19
2022-08-09T11:58:08.276Z,20.48
2022-08-09T11:59:08.273Z,20.72
2022-08-09T12:00:39.018Z,20.41
2022-08-09T12:02:17.721Z,20.63
2022-08-09T12:02:40.880Z,20.89
2022-08-09T12:03:55.290Z,21.03
2022-08-09T12:04:41.292Z,21.14
2022-08-09T12:05:42.127Z,21.30
2022-08-09T12:06:40.970Z,21.19
2022-08-09T12:07:42.271Z,21.50
2022-08-09T12:08:38.958Z,21.11
2022-08-09T12:09:50.628Z,21.41
2022-08-09T12:10:42.246Z,20.90
2022-08-09T12:12:02.741Z,20.60
2022-08-09T12:12:45.984Z,20.98
2022-08-09T12:14:08.137Z,20.69
2022-08-09T12:14:58.940Z,20.34
2022-08-09T12:15:48.560Z,19.81
2022-08-09T12:16:40.922Z,18.75
2022-08-09T12:17:43.072Z,18.85
2022-08-09T12:18:40.904Z,19.04
2022-08-09T12:20:16.640Z,19.36
2022-08-09T12:21:28.452Z,20.45
2022-08-09T12:22:14.812Z,20.56
2022-08-09T12:23:15.778Z,19.56
2022-08-09T12:24:21.585Z,19.56
2022-08-09T12:25:14.874Z,19.86
2022-08-09T12:26:19.812Z,19.95
2022-08-09T12:29:13.384Z,19.33
2022-08-09T12:29:15.409Z,19.65
2022-08-09T12:29:29.501Z,19.94
2022-08-09T12:30:36.370Z,18.87
2022-08-09T12:31:58.313Z,20.34
2022-08-09T12:32:13.728Z,19.26
2022-08-09T12:33:13.527Z,19.34
2022-08-09T12:34:13.518Z,18.94
2022-08-09T12:35:21.642Z,18.47
2022-08-09T12:36:31.511Z,19.39
2022-08-09T12:37:51.727Z,18.45
2022-08-09T12:39:37.674Z,18.86
2022-08-09T12:40:36.325Z,19.03
2022-08-09T12:41:40.227Z,18.76
2022-08-09T12:42:42.134Z,20.18
2022-08-09T12:44:06.625Z,18.62
2022-08-09T12:44:39.801Z,19.53
2022-08-09T12:45:38.506Z,20.15
2022-08-09T12:47:50.287Z,20.39
2022-08-09T12:49:20.847Z,22.15
2022-08-09T12:50:13.708Z,20.88
2022-08-09T12:51:13.899Z,20.95
2022-08-09T12:52:20.742Z,20.05
2022-08-09T12:53:18.119Z,19.66
2022-08-09T12:54:15.680Z,19.46
2022-08-09T12:56:15.521Z,21.13
2022-08-09T12:56:34.892Z,20.17
2022-08-09T12:57:14.714Z,20.78
2022-08-09T12:58:27.476Z,20.98
2022-08-09T12:59:14.901Z,21.56
2022-08-09T13:00:13.859Z,20.67
2022-08-09T13:01:13.698Z,21.97
2022-08-09T13:02:16.058Z,21.48
2022-08-09T13:03:24.382Z,20.61
2022-08-09T13:04:36.608Z,20.90
2022-08-09T13:05:20.679Z,20.90
2022-08-09T13:06:19.622Z,20.30
2022-08-09T13:07:15.630Z,20.59
2022-08-09T13:08:13.620Z,20.59
2022-08-09T13:10:52.198Z,21.39
2022-08-09T13:11:51.081Z,22.01
2022-08-09T13:13:09.117Z,21.42